sensor_id;sensor_type;location;lat;lon;timestamp;temperature;humidity
1075;DHT22;526;51.392;12.448;2023-08-30T04:01:39;14.60;97.30
1075;DHT22;526;51.392;12.448;2023-08-30T04:04:05;14.60;97.30
1075;DHT22;526;51.392;12.448;2023-08-30T04:06:31;14.60;97.30
1075;DHT22;526;51.392;12.448;2023-08-30T04:08:56;14.50;97.30
1075;DHT22;526;51.392;12.448;2023-08-30T04:11:23;14.50;97.30
1075;DHT22;526;51.392;12.448;2023-08-30T04:13:48;14.50;97.30
1075;DHT22;526;51.392;12.448;2023-08-30T04:16:14;14.50;97.30
1075;DHT22;526;51.392;12.448;2023-08-30T04:18:40;14.50;97.30
1075;DHT22;526;51.392;12.448;2023-08-30T04:21:05;14.50;97.30
1075;DHT22;526;51.392;12.448;2023-08-30T04:23:33;14.60;97.30
1075;DHT22;526;51.392;12.448;2023-08-30T04:25:58;14.50;97.30
1075;DHT22;526;51.392;12.448;2023-08-30T04:28:24;14.60;97.30
1075;DHT22;526;51.392;12.448;2023-08-30T04:30:53;14.50;97.30
1075;DHT22;526;51.392;12.448;2023-08-30T04:33:19;14.50;97.30
1075;DHT22;526;51.392;12.448;2023-08-30T04:35:44;14.60;97.30
1075;DHT22;526;51.392;12.448;2023-08-30T04:38:15;14.60;97.30
1075;DHT22;526;51.392;12.448;2023-08-30T04:40:40;14.50;97.30
1075;DHT22;526;51.392;12.448;2023-08-30T04:43:06;14.50;97.30
1075;DHT22;526;51.392;12.448;2023-08-30T04:45:31;14.50;97.30
1075;DHT22;526;51.392;12.448;2023-08-30T04:47:57;14.50;97.30
1075;DHT22;526;51.392;12.448;2023-08-30T04:50:22;14.50;97.30
1075;DHT22;526;51.392;12.448;2023-08-30T04:52:48;14.50;97.30
1075;DHT22;526;51.392;12.448;2023-08-30T04:55:13;14.50;97.30
1075;DHT22;526;51.392;12.448;2023-08-30T04:57:39;14.50;97.30
1075;DHT22;526;51.392;12.448;2023-08-30T05:00:05;14.40;97.30
1075;DHT22;526;51.392;12.448;2023-08-30T05:02:31;14.40;97.30
1075;DHT22;526;51.392;12.448;2023-08-30T05:04:57;14.40;97.30
1075;DHT22;526;51.392;12.448;2023-08-30T05:07:22;14.40;97.30
1075;DHT22;526;51.392;12.448;2023-08-30T05:09:48;14.40;97.30
1075;DHT22;526;51.392;12.448;2023-08-30T05:12:14;14.40;97.30
1075;DHT22;526;51.392;12.448;2023-08-30T05:14:39;14.40;97.30
1075;DHT22;526;51.392;12.448;2023-08-30T05:17:06;14.40;97.30
1075;DHT22;526;51.392;12.448;2023-08-30T05:19:32;14.40;97.30
1075;DHT22;526;51.392;12.448;2023-08-30T05:21:58;14.40;97.30
1075;DHT22;526;51.392;12.448;2023-08-30T05:24:23;14.40;97.30
1075;DHT22;526;51.392;12.448;2023-08-30T05:26:49;14.40;97.30
1075;DHT22;526;51.392;12.448;2023-08-30T05:29:15;14.40;97.30
1075;DHT22;526;51.392;12.448;2023-08-30T05:31:41;14.40;97.30
1075;DHT22;526;51.392;12.448;2023-08-30T05:34:07;14.40;97.30
1075;DHT22;526;51.392;12.448;2023-08-30T05:36:33;14.40;97.30
1075;DHT22;526;51.392;12.448;2023-08-30T05:38:58;14.40;97.30
1075;DHT22;526;51.392;12.448;2023-08-30T05:41:24;14.30;97.30
1075;DHT22;526;51.392;12.448;2023-08-30T05:43:50;14.30;97.30
1075;DHT22;526;51.392;12.448;2023-08-30T05:46:16;14.30;97.30
1075;DHT22;526;51.392;12.448;2023-08-30T05:48:42;14.30;97.30
1075;DHT22;526;51.392;12.448;2023-08-30T05:51:07;14.30;97.30
1075;DHT22;526;51.392;12.448;2023-08-30T05:53:33;14.30;97.30
1075;DHT22;526;51.392;12.448;2023-08-30T05:55:58;14.30;97.30
1075;DHT22;526;51.392;12.448;2023-08-30T05:58:24;14.30;97.30
1075;DHT22;526;51.392;12.448;2023-08-30T06:00:49;14.30;97.30
1075;DHT22;526;51.392;12.448;2023-08-30T06:03:15;14.30;97.30
1075;DHT22;526;51.392;12.448;2023-08-30T06:05:41;14.30;97.30
1075;DHT22;526;51.392;12.448;2023-08-30T06:08:08;14.40;97.30
1075;DHT22;526;51.392;12.448;2023-08-30T06:10:34;14.30;97.30
1075;DHT22;526;51.392;12.448;2023-08-30T06:13:00;14.40;97.30
1075;DHT22;526;51.392;12.448;2023-08-30T06:15:25;14.40;97.30
1075;DHT22;526;51.392;12.448;2023-08-30T06:17:51;14.40;97.30
1075;DHT22;526;51.392;12.448;2023-08-30T06:20:17;14.40;97.30
1075;DHT22;526;51.392;12.448;2023-08-30T06:22:43;14.40;97.30
1075;DHT22;526;51.392;12.448;2023-08-30T06:25:09;14.40;97.30
1075;DHT22;526;51.392;12.448;2023-08-30T06:27:43;14.40;97.30
1075;DHT22;526;51.392;12.448;2023-08-30T06:30:21;14.50;97.30
1075;DHT22;526;51.392;12.448;2023-08-30T06:32:48;14.50;97.30
1075;DHT22;526;51.392;12.448;2023-08-30T06:35:15;14.50;97.30
1075;DHT22;526;51.392;12.448;2023-08-30T06:37:40;14.50;97.30
1075;DHT22;526;51.392;12.448;2023-08-30T06:40:07;14.60;97.30
1075;DHT22;526;51.392;12.448;2023-08-30T06:42:32;14.60;97.30
1075;DHT22;526;51.392;12.448;2023-08-30T06:44:58;14.70;97.30
1075;DHT22;526;51.392;12.448;2023-08-30T06:47:23;14.80;97.30
1075;DHT22;526;51.392;12.448;2023-08-30T06:49:49;14.80;97.30
1075;DHT22;526;51.392;12.448;2023-08-30T06:52:14;14.80;97.30
1075;DHT22;526;51.392;12.448;2023-08-30T06:54:40;14.90;97.30
1075;DHT22;526;51.392;12.448;2023-08-30T06:57:06;15.00;97.30
1075;DHT22;526;51.392;12.448;2023-08-30T06:59:32;15.00;97.30
1075;DHT22;526;51.392;12.448;2023-08-30T07:01:58;15.10;97.30
1075;DHT22;526;51.392;12.448;2023-08-30T07:04:23;15.20;97.30
1075;DHT22;526;51.392;12.448;2023-08-30T07:06:50;15.30;97.30
1075;DHT22;526;51.392;12.448;2023-08-30T07:09:15;15.40;97.30
1075;DHT22;526;51.392;12.448;2023-08-30T07:11:43;15.40;97.30
1075;DHT22;526;51.392;12.448;2023-08-30T07:14:11;15.50;97.30
1075;DHT22;526;51.392;12.448;2023-08-30T07:16:39;15.50;97.30
1075;DHT22;526;51.392;12.448;2023-08-30T07:19:04;15.60;97.30
1075;DHT22;526;51.392;12.448;2023-08-30T07:21:30;15.60;97.30
1075;DHT22;526;51.392;12.448;2023-08-30T07:23:56;15.60;97.30
1075;DHT22;526;51.392;12.448;2023-08-30T07:26:21;15.70;97.30
1075;DHT22;526;51.392;12.448;2023-08-30T07:28:47;15.70;97.30
1075;DHT22;526;51.392;12.448;2023-08-30T07:31:12;15.80;97.30
1075;DHT22;526;51.392;12.448;2023-08-30T07:33:44;15.80;97.30
1075;DHT22;526;51.392;12.448;2023-08-30T07:36:09;15.90;97.30
1075;DHT22;526;51.392;12.448;2023-08-30T07:38:35;15.90;97.30
1075;DHT22;526;51.392;12.448;2023-08-30T07:41:01;16.00;97.30
1075;DHT22;526;51.392;12.448;2023-08-30T07:43:27;16.10;97.30
1075;DHT22;526;51.392;12.448;2023-08-30T07:45:53;16.20;97.30
1075;DHT22;526;51.392;12.448;2023-08-30T07:48:18;16.30;97.30
1075;DHT22;526;51.392;12.448;2023-08-30T07:50:44;16.30;97.30
1075;DHT22;526;51.392;12.448;2023-08-30T07:53:09;16.40;97.30
1075;DHT22;526;51.392;12.448;2023-08-30T07:55:36;16.50;97.30
1075;DHT22;526;51.392;12.448;2023-08-30T07:58:01;16.60;97.30
1075;DHT22;526;51.392;12.448;2023-08-30T08:00:29;16.60;97.30
1075;DHT22;526;51.392;12.448;2023-08-30T08:02:54;16.70;97.30
1075;DHT22;526;51.392;12.448;2023-08-30T08:05:20;16.70;97.30
1075;DHT22;526;51.392;12.448;2023-08-30T08:07:49;16.80;97.30
1075;DHT22;526;51.392;12.448;2023-08-30T08:10:15;16.90;97.30
1075;DHT22;526;51.392;12.448;2023-08-30T08:12:41;17.00;97.30
1075;DHT22;526;51.392;12.448;2023-08-30T08:15:06;17.00;97.30
1075;DHT22;526;51.392;12.448;2023-08-30T08:17:32;17.10;97.30
1075;DHT22;526;51.392;12.448;2023-08-30T08:19:58;17.10;97.30
1075;DHT22;526;51.392;12.448;2023-08-30T08:22:23;17.20;97.30
1075;DHT22;526;51.392;12.448;2023-08-30T08:24:49;17.30;97.30
1075;DHT22;526;51.392;12.448;2023-08-30T08:27:17;17.40;97.30
1075;DHT22;526;51.392;12.448;2023-08-30T08:29:42;17.40;97.30
1075;DHT22;526;51.392;12.448;2023-08-30T08:32:08;17.50;97.30
1075;DHT22;526;51.392;12.448;2023-08-30T08:34:33;17.60;97.30
1075;DHT22;526;51.392;12.448;2023-08-30T08:36:59;17.70;97.30
1075;DHT22;526;51.392;12.448;2023-08-30T08:39:25;17.70;97.30
1075;DHT22;526;51.392;12.448;2023-08-30T08:41:51;17.80;97.30
1075;DHT22;526;51.392;12.448;2023-08-30T08:44:21;17.90;97.30
1075;DHT22;526;51.392;12.448;2023-08-30T08:46:48;17.90;97.30
1075;DHT22;526;51.392;12.448;2023-08-30T08:49:15;18.00;97.30
1075;DHT22;526;51.392;12.448;2023-08-30T08:51:42;18.10;97.30
1075;DHT22;526;51.392;12.448;2023-08-30T08:54:09;18.10;97.30
1075;DHT22;526;51.392;12.448;2023-08-30T08:56:35;18.20;97.30
1075;DHT22;526;51.392;12.448;2023-08-30T08:59:01;18.20;97.30
1075;DHT22;526;51.392;12.448;2023-08-30T09:01:27;18.30;97.30
1075;DHT22;526;51.392;12.448;2023-08-30T09:03:52;18.40;97.30
1075;DHT22;526;51.392;12.448;2023-08-30T09:06:19;18.60;97.30
1075;DHT22;526;51.392;12.448;2023-08-30T09:08:44;18.70;97.30
1075;DHT22;526;51.392;12.448;2023-08-30T09:11:10;18.70;97.30
1075;DHT22;526;51.392;12.448;2023-08-30T09:13:36;18.70;97.30
1075;DHT22;526;51.392;12.448;2023-08-30T09:16:01;18.70;97.30
1075;DHT22;526;51.392;12.448;2023-08-30T09:18:28;18.80;97.30
1075;DHT22;526;51.392;12.448;2023-08-30T09:21:05;18.90;97.30
1075;DHT22;526;51.392;12.448;2023-08-30T09:23:31;18.90;97.30
1075;DHT22;526;51.392;12.448;2023-08-30T09:25:56;19.00;97.30
1075;DHT22;526;51.392;12.448;2023-08-30T09:28:22;19.10;97.30
1075;DHT22;526;51.392;12.448;2023-08-30T09:30:52;19.20;97.30
1075;DHT22;526;51.392;12.448;2023-08-30T09:33:22;19.20;97.30
1075;DHT22;526;51.392;12.448;2023-08-30T09:35:47;19.30;97.30
1075;DHT22;526;51.392;12.448;2023-08-30T09:38:17;19.30;97.30
1075;DHT22;526;51.392;12.448;2023-08-30T09:40:44;19.30;97.30
1075;DHT22;526;51.392;12.448;2023-08-30T09:43:13;19.30;97.30
1075;DHT22;526;51.392;12.448;2023-08-30T09:45:43;19.30;96.80
1075;DHT22;526;51.392;12.448;2023-08-30T09:48:08;19.20;96.80
1075;DHT22;526;51.392;12.448;2023-08-30T09:50:35;19.20;94.70
1075;DHT22;526;51.392;12.448;2023-08-30T09:53:07;19.30;94.80
1075;DHT22;526;51.392;12.448;2023-08-30T09:55:33;19.40;94.70
1075;DHT22;526;51.392;12.448;2023-08-30T09:58:04;19.60;94.50
1075;DHT22;526;51.392;12.448;2023-08-30T10:00:31;19.70;94.30
1075;DHT22;526;51.392;12.448;2023-08-30T10:02:58;19.80;94.10
1075;DHT22;526;51.392;12.448;2023-08-30T10:05:24;19.90;92.00
1075;DHT22;526;51.392;12.448;2023-08-30T10:07:52;20.00;93.80
1075;DHT22;526;51.392;12.448;2023-08-30T10:10:19;20.00;92.50
1075;DHT22;526;51.392;12.448;2023-08-30T10:12:46;19.90;93.00
1075;DHT22;526;51.392;12.448;2023-08-30T10:15:12;19.90;93.50
1075;DHT22;526;51.392;12.448;2023-08-30T10:17:40;19.80;93.70
1075;DHT22;526;51.392;12.448;2023-08-30T10:20:07;19.70;94.00
1075;DHT22;526;51.392;12.448;2023-08-30T10:22:36;19.60;93.40
1075;DHT22;526;51.392;12.448;2023-08-30T10:25:06;19.60;94.40
1075;DHT22;526;51.392;12.448;2023-08-30T10:27:34;19.70;94.40
1075;DHT22;526;51.392;12.448;2023-08-30T10:30:01;19.90;94.40
1075;DHT22;526;51.392;12.448;2023-08-30T10:32:29;20.00;93.50
1075;DHT22;526;51.392;12.448;2023-08-30T10:34:55;20.20;94.00
1075;DHT22;526;51.392;12.448;2023-08-30T10:37:26;20.30;93.10
1075;DHT22;526;51.392;12.448;2023-08-30T10:39:52;20.50;94.20
1075;DHT22;526;51.392;12.448;2023-08-30T10:42:22;20.70;93.80
1075;DHT22;526;51.392;12.448;2023-08-30T10:47:32;20.80;88.00
1075;DHT22;526;51.392;12.448;2023-08-30T10:50:04;20.80;89.60
1075;DHT22;526;51.392;12.448;2023-08-30T10:52:30;20.90;90.10
1075;DHT22;526;51.392;12.448;2023-08-30T10:55:07;21.00;91.40
1075;DHT22;526;51.392;12.448;2023-08-30T10:57:33;21.20;90.60
1075;DHT22;526;51.392;12.448;2023-08-30T11:00:06;21.30;90.40
1075;DHT22;526;51.392;12.448;2023-08-30T11:02:48;21.40;89.10
1075;DHT22;526;51.392;12.448;2023-08-30T11:05:16;21.40;89.10
1075;DHT22;526;51.392;12.448;2023-08-30T11:07:45;21.30;89.00
1075;DHT22;526;51.392;12.448;2023-08-30T11:10:12;21.20;89.00
1075;DHT22;526;51.392;12.448;2023-08-30T11:12:42;21.10;90.40
1075;DHT22;526;51.392;12.448;2023-08-30T11:15:09;20.90;89.50
1075;DHT22;526;51.392;12.448;2023-08-30T11:17:35;20.80;89.70
1075;DHT22;526;51.392;12.448;2023-08-30T11:20:09;20.70;90.70
1075;DHT22;526;51.392;12.448;2023-08-30T11:22:43;20.80;91.40
1075;DHT22;526;51.392;12.448;2023-08-30T11:25:10;20.80;89.70
1075;DHT22;526;51.392;12.448;2023-08-30T11:27:37;20.70;90.20
1075;DHT22;526;51.392;12.448;2023-08-30T11:30:02;20.70;90.90
1075;DHT22;526;51.392;12.448;2023-08-30T11:32:34;20.70;91.00
1075;DHT22;526;51.392;12.448;2023-08-30T11:35:00;20.70;89.50
1075;DHT22;526;51.392;12.448;2023-08-30T11:37:29;20.80;90.90
1075;DHT22;526;51.392;12.448;2023-08-30T11:39:55;21.00;91.80
1075;DHT22;526;51.392;12.448;2023-08-30T11:42:22;21.20;91.10
1075;DHT22;526;51.392;12.448;2023-08-30T11:44:47;21.40;89.80
1075;DHT22;526;51.392;12.448;2023-08-30T11:47:24;21.60;88.60
1075;DHT22;526;51.392;12.448;2023-08-30T11:49:52;21.80;87.50
1075;DHT22;526;51.392;12.448;2023-08-30T11:52:19;21.90;87.60
1075;DHT22;526;51.392;12.448;2023-08-30T11:54:49;22.00;87.80
1075;DHT22;526;51.392;12.448;2023-08-30T11:57:16;22.20;87.10
1075;DHT22;526;51.392;12.448;2023-08-30T11:59:42;22.30;85.30
1075;DHT22;526;51.392;12.448;2023-08-30T12:02:08;22.40;86.10
1075;DHT22;526;51.392;12.448;2023-08-30T12:04:44;22.50;86.00
1075;DHT22;526;51.392;12.448;2023-08-30T12:07:24;22.50;83.20
1075;DHT22;526;51.392;12.448;2023-08-30T12:09:50;22.50;85.80
1075;DHT22;526;51.392;12.448;2023-08-30T12:12:15;22.60;87.00
1075;DHT22;526;51.392;12.448;2023-08-30T12:14:41;22.70;84.60
1075;DHT22;526;51.392;12.448;2023-08-30T12:17:08;22.70;82.60
1075;DHT22;526;51.392;12.448;2023-08-30T12:19:36;22.60;84.50
1075;DHT22;526;51.392;12.448;2023-08-30T12:22:06;22.60;84.70
1075;DHT22;526;51.392;12.448;2023-08-30T12:27:07;22.90;85.70
1075;DHT22;526;51.392;12.448;2023-08-30T12:29:33;23.00;84.90
1075;DHT22;526;51.392;12.448;2023-08-30T12:31:58;23.10;83.40
1075;DHT22;526;51.392;12.448;2023-08-30T12:34:24;23.20;82.60
1075;DHT22;526;51.392;12.448;2023-08-30T12:36:50;23.40;84.00
1075;DHT22;526;51.392;12.448;2023-08-30T12:39:15;23.50;83.50
1075;DHT22;526;51.392;12.448;2023-08-30T12:41:41;23.60;81.20
1075;DHT22;526;51.392;12.448;2023-08-30T12:44:08;23.60;81.40
1075;DHT22;526;51.392;12.448;2023-08-30T12:46:33;23.70;82.90
1075;DHT22;526;51.392;12.448;2023-08-30T12:48:59;23.60;81.20
1075;DHT22;526;51.392;12.448;2023-08-30T12:51:25;23.50;81.00
1075;DHT22;526;51.392;12.448;2023-08-30T12:53:50;23.50;82.50
1075;DHT22;526;51.392;12.448;2023-08-30T12:56:16;23.50;81.70
1075;DHT22;526;51.392;12.448;2023-08-30T12:58:41;23.50;83.80
1075;DHT22;526;51.392;12.448;2023-08-30T13:01:07;23.60;83.00
1075;DHT22;526;51.392;12.448;2023-08-30T13:03:32;23.70;83.30
1075;DHT22;526;51.392;12.448;2023-08-30T13:05:58;23.80;82.10
1075;DHT22;526;51.392;12.448;2023-08-30T13:08:24;23.60;79.90
1075;DHT22;526;51.392;12.448;2023-08-30T13:10:49;23.40;80.80
1075;DHT22;526;51.392;12.448;2023-08-30T13:13:15;23.50;83.10
1075;DHT22;526;51.392;12.448;2023-08-30T13:15:41;23.60;81.70
1075;DHT22;526;51.392;12.448;2023-08-30T13:18:06;23.70;83.10
1075;DHT22;526;51.392;12.448;2023-08-30T13:20:32;23.90;84.10
1075;DHT22;526;51.392;12.448;2023-08-30T13:22:57;24.10;84.90
1075;DHT22;526;51.392;12.448;2023-08-30T13:25:23;24.20;81.80
1075;DHT22;526;51.392;12.448;2023-08-30T13:27:48;24.30;82.60
1075;DHT22;526;51.392;12.448;2023-08-30T13:30:14;24.30;80.50
1075;DHT22;526;51.392;12.448;2023-08-30T13:32:39;24.20;81.40
1075;DHT22;526;51.392;12.448;2023-08-30T13:35:05;24.10;82.80
1075;DHT22;526;51.392;12.448;2023-08-30T13:37:31;24.10;83.20
1075;DHT22;526;51.392;12.448;2023-08-30T13:39:56;24.20;83.20
1075;DHT22;526;51.392;12.448;2023-08-30T13:42:22;24.40;82.40
1075;DHT22;526;51.392;12.448;2023-08-30T13:44:50;24.40;81.10
1075;DHT22;526;51.392;12.448;2023-08-30T13:47:16;24.50;82.20
1075;DHT22;526;51.392;12.448;2023-08-30T13:49:42;24.50;79.00
1075;DHT22;526;51.392;12.448;2023-08-30T13:52:07;24.40;77.90
1075;DHT22;526;51.392;12.448;2023-08-30T13:54:33;24.50;78.40
1075;DHT22;526;51.392;12.448;2023-08-30T13:56:58;24.50;77.70
1075;DHT22;526;51.392;12.448;2023-08-30T13:59:24;24.60;78.80
1075;DHT22;526;51.392;12.448;2023-08-30T14:01:49;24.60;77.50
1075;DHT22;526;51.392;12.448;2023-08-30T14:04:15;24.30;75.90
1075;DHT22;526;51.392;12.448;2023-08-30T14:06:40;24.10;78.60
1075;DHT22;526;51.392;12.448;2023-08-30T14:09:06;24.10;78.40
1075;DHT22;526;51.392;12.448;2023-08-30T14:11:36;24.20;77.30
1075;DHT22;526;51.392;12.448;2023-08-30T14:14:03;24.30;76.90
1075;DHT22;526;51.392;12.448;2023-08-30T14:16:29;24.30;76.50
1075;DHT22;526;51.392;12.448;2023-08-30T14:18:54;24.20;75.80
1075;DHT22;526;51.392;12.448;2023-08-30T14:21:20;24.10;76.20
1075;DHT22;526;51.392;12.448;2023-08-30T14:23:46;24.00;75.30
1075;DHT22;526;51.392;12.448;2023-08-30T14:26:11;23.90;76.70
1075;DHT22;526;51.392;12.448;2023-08-30T14:28:41;23.80;76.60
1075;DHT22;526;51.392;12.448;2023-08-30T14:31:07;23.70;77.20
1075;DHT22;526;51.392;12.448;2023-08-30T14:33:33;23.60;78.00
1075;DHT22;526;51.392;12.448;2023-08-30T14:35:59;23.70;78.90
1075;DHT22;526;51.392;12.448;2023-08-30T14:38:26;23.80;79.60
1075;DHT22;526;51.392;12.448;2023-08-30T14:40:59;24.00;79.50
1075;DHT22;526;51.392;12.448;2023-08-30T14:43:25;24.20;79.90
1075;DHT22;526;51.392;12.448;2023-08-30T14:45:51;24.40;77.60
1075;DHT22;526;51.392;12.448;2023-08-30T14:48:16;24.50;77.70
1075;DHT22;526;51.392;12.448;2023-08-30T14:50:42;24.60;76.90
1075;DHT22;526;51.392;12.448;2023-08-30T14:53:08;24.60;77.40
1075;DHT22;526;51.392;12.448;2023-08-30T14:55:33;24.60;76.80
1075;DHT22;526;51.392;12.448;2023-08-30T14:57:59;24.40;76.50
1075;DHT22;526;51.392;12.448;2023-08-30T15:00:25;24.20;76.90
1075;DHT22;526;51.392;12.448;2023-08-30T15:02:51;24.00;78.20
1075;DHT22;526;51.392;12.448;2023-08-30T15:05:17;23.80;80.00
1075;DHT22;526;51.392;12.448;2023-08-30T15:07:43;23.70;80.10
1075;DHT22;526;51.392;12.448;2023-08-30T15:10:09;23.60;80.40
1075;DHT22;526;51.392;12.448;2023-08-30T15:12:35;23.50;80.00
1075;DHT22;526;51.392;12.448;2023-08-30T15:15:02;23.60;79.30
1075;DHT22;526;51.392;12.448;2023-08-30T15:17:28;23.60;79.40
1075;DHT22;526;51.392;12.448;2023-08-30T15:19:53;23.60;79.20
1075;DHT22;526;51.392;12.448;2023-08-30T15:22:19;23.60;79.60
1075;DHT22;526;51.392;12.448;2023-08-30T15:24:45;23.70;79.40
1075;DHT22;526;51.392;12.448;2023-08-30T15:27:10;23.70;79.70
1075;DHT22;526;51.392;12.448;2023-08-30T15:29:36;23.80;80.30
1075;DHT22;526;51.392;12.448;2023-08-30T15:32:02;23.70;81.00
1075;DHT22;526;51.392;12.448;2023-08-30T15:34:27;23.60;81.20
1075;DHT22;526;51.392;12.448;2023-08-30T15:36:53;23.40;81.00
1075;DHT22;526;51.392;12.448;2023-08-30T15:39:18;23.30;81.00
1075;DHT22;526;51.392;12.448;2023-08-30T15:41:44;23.10;80.30
1075;DHT22;526;51.392;12.448;2023-08-30T15:44:10;22.90;80.10
1075;DHT22;526;51.392;12.448;2023-08-30T15:46:36;22.80;80.70
1075;DHT22;526;51.392;12.448;2023-08-30T15:49:02;22.70;81.20
1075;DHT22;526;51.392;12.448;2023-08-30T15:51:28;22.60;82.00
1075;DHT22;526;51.392;12.448;2023-08-30T15:53:53;22.50;82.80
1075;DHT22;526;51.392;12.448;2023-08-30T15:56:20;22.40;81.70
1075;DHT22;526;51.392;12.448;2023-08-30T15:58:46;22.40;81.40
1075;DHT22;526;51.392;12.448;2023-08-30T16:01:12;22.30;81.50
1075;DHT22;526;51.392;12.448;2023-08-30T16:03:40;22.20;80.90
1075;DHT22;526;51.392;12.448;2023-08-30T16:06:05;22.20;82.30
1075;DHT22;526;51.392;12.448;2023-08-30T16:08:31;22.10;82.00
1075;DHT22;526;51.392;12.448;2023-08-30T16:10:56;22.10;81.80
1075;DHT22;526;51.392;12.448;2023-08-30T16:13:22;22.10;81.70
1075;DHT22;526;51.392;12.448;2023-08-30T16:15:48;22.10;81.00
1075;DHT22;526;51.392;12.448;2023-08-30T16:18:13;22.10;81.60
1075;DHT22;526;51.392;12.448;2023-08-30T16:20:41;22.10;83.10
1075;DHT22;526;51.392;12.448;2023-08-30T16:23:06;22.20;83.20
1075;DHT22;526;51.392;12.448;2023-08-30T16:25:32;22.20;82.90
1075;DHT22;526;51.392;12.448;2023-08-30T16:27:57;22.30;84.10
1075;DHT22;526;51.392;12.448;2023-08-30T16:30:23;22.40;84.90
1075;DHT22;526;51.392;12.448;2023-08-30T16:32:51;22.40;85.10
1075;DHT22;526;51.392;12.448;2023-08-30T16:35:16;22.50;84.00
1075;DHT22;526;51.392;12.448;2023-08-30T16:37:42;22.40;85.00
1075;DHT22;526;51.392;12.448;2023-08-30T16:40:08;22.40;87.30
1075;DHT22;526;51.392;12.448;2023-08-30T16:42:33;22.30;87.60
1075;DHT22;526;51.392;12.448;2023-08-30T16:44:59;22.30;88.30
1075;DHT22;526;51.392;12.448;2023-08-30T16:47:25;22.20;89.00
1075;DHT22;526;51.392;12.448;2023-08-30T16:49:51;22.10;89.70
1075;DHT22;526;51.392;12.448;2023-08-30T16:52:16;22.00;89.10
1075;DHT22;526;51.392;12.448;2023-08-30T16:54:43;21.90;90.40
1075;DHT22;526;51.392;12.448;2023-08-30T16:57:10;21.80;90.80
1075;DHT22;526;51.392;12.448;2023-08-30T16:59:35;21.70;91.30
1075;DHT22;526;51.392;12.448;2023-08-30T17:02:01;21.60;90.50
1075;DHT22;526;51.392;12.448;2023-08-30T17:04:29;21.50;91.40
1075;DHT22;526;51.392;12.448;2023-08-30T17:06:54;21.40;92.00
1075;DHT22;526;51.392;12.448;2023-08-30T17:09:29;21.30;92.10
1075;DHT22;526;51.392;12.448;2023-08-30T17:11:57;21.20;91.90
1075;DHT22;526;51.392;12.448;2023-08-30T17:14:24;21.10;92.60
1075;DHT22;526;51.392;12.448;2023-08-30T17:16:50;21.00;92.80
1075;DHT22;526;51.392;12.448;2023-08-30T17:19:16;20.90;92.60
1075;DHT22;526;51.392;12.448;2023-08-30T17:21:41;20.80;93.20
1075;DHT22;526;51.392;12.448;2023-08-30T17:24:07;20.70;93.50
1075;DHT22;526;51.392;12.448;2023-08-30T17:26:32;20.60;93.20
1075;DHT22;526;51.392;12.448;2023-08-30T17:28:58;20.50;93.50
1075;DHT22;526;51.392;12.448;2023-08-30T17:31:25;20.30;94.00
1075;DHT22;526;51.392;12.448;2023-08-30T17:33:52;20.20;93.90
1075;DHT22;526;51.392;12.448;2023-08-30T17:36:18;20.20;94.10
1075;DHT22;526;51.392;12.448;2023-08-30T17:38:46;20.10;94.50
1075;DHT22;526;51.392;12.448;2023-08-30T17:41:13;20.00;94.00
1075;DHT22;526;51.392;12.448;2023-08-30T17:43:39;19.90;94.60
1075;DHT22;526;51.392;12.448;2023-08-30T17:46:05;19.80;94.60
1075;DHT22;526;51.392;12.448;2023-08-30T17:48:31;19.70;95.00
1075;DHT22;526;51.392;12.448;2023-08-30T17:50:56;19.70;95.40
1075;DHT22;526;51.392;12.448;2023-08-30T17:53:22;19.60;95.20
1075;DHT22;526;51.392;12.448;2023-08-30T17:55:58;19.50;95.20
1075;DHT22;526;51.392;12.448;2023-08-30T17:58:25;19.40;95.20
1075;DHT22;526;51.392;12.448;2023-08-30T18:00:53;19.40;95.60
1075;DHT22;526;51.392;12.448;2023-08-30T18:03:23;19.30;95.80
1075;DHT22;526;51.392;12.448;2023-08-30T18:05:49;19.20;96.20
1075;DHT22;526;51.392;12.448;2023-08-30T18:08:15;19.20;96.80
1075;DHT22;526;51.392;12.448;2023-08-30T18:10:42;19.10;97.30
1075;DHT22;526;51.392;12.448;2023-08-30T18:13:07;19.00;97.30
1075;DHT22;526;51.392;12.448;2023-08-30T18:15:36;18.90;97.30
1075;DHT22;526;51.392;12.448;2023-08-30T18:18:03;18.80;97.30
1075;DHT22;526;51.392;12.448;2023-08-30T18:20:29;18.80;97.30
1075;DHT22;526;51.392;12.448;2023-08-30T18:22:55;18.70;97.30
1075;DHT22;526;51.392;12.448;2023-08-30T18:25:21;18.60;97.30
1075;DHT22;526;51.392;12.448;2023-08-30T18:27:47;18.50;97.30
1075;DHT22;526;51.392;12.448;2023-08-30T18:30:15;18.40;97.30
1075;DHT22;526;51.392;12.448;2023-08-30T18:32:41;18.40;97.30
1075;DHT22;526;51.392;12.448;2023-08-30T18:35:07;18.30;97.30
1075;DHT22;526;51.392;12.448;2023-08-30T18:37:33;18.30;97.30
1075;DHT22;526;51.392;12.448;2023-08-30T18:39:59;18.30;97.30
1075;DHT22;526;51.392;12.448;2023-08-30T18:42:24;18.20;97.30
1075;DHT22;526;51.392;12.448;2023-08-30T18:44:52;18.20;97.30
1075;DHT22;526;51.392;12.448;2023-08-30T18:47:18;18.20;97.30
1075;DHT22;526;51.392;12.448;2023-08-30T18:49:49;18.10;97.30
1075;DHT22;526;51.392;12.448;2023-08-30T18:52:15;18.10;97.30
1075;DHT22;526;51.392;12.448;2023-08-30T18:54:41;18.10;97.30
1075;DHT22;526;51.392;12.448;2023-08-30T18:57:12;18.10;97.30
1075;DHT22;526;51.392;12.448;2023-08-30T18:59:38;18.10;97.30
1075;DHT22;526;51.392;12.448;2023-08-30T19:02:05;18.10;97.30
1075;DHT22;526;51.392;12.448;2023-08-30T19:04:30;18.00;97.30
1075;DHT22;526;51.392;12.448;2023-08-30T19:06:56;18.00;97.30
1075;DHT22;526;51.392;12.448;2023-08-30T19:09:22;18.00;97.30
1075;DHT22;526;51.392;12.448;2023-08-30T19:11:47;18.00;97.30
1075;DHT22;526;51.392;12.448;2023-08-30T19:14:13;18.00;97.30
1075;DHT22;526;51.392;12.448;2023-08-30T19:16:38;18.00;97.30
1075;DHT22;526;51.392;12.448;2023-08-30T19:19:04;18.00;97.30
1075;DHT22;526;51.392;12.448;2023-08-30T19:21:31;18.00;97.30
1075;DHT22;526;51.392;12.448;2023-08-30T19:23:56;18.00;97.30
1075;DHT22;526;51.392;12.448;2023-08-30T19:26:22;18.00;97.30
1075;DHT22;526;51.392;12.448;2023-08-30T19:28:53;18.00;97.30
1075;DHT22;526;51.392;12.448;2023-08-30T19:31:18;18.10;97.30
1075;DHT22;526;51.392;12.448;2023-08-30T19:33:44;18.10;97.30
1075;DHT22;526;51.392;12.448;2023-08-30T19:36:09;18.10;97.30
1075;DHT22;526;51.392;12.448;2023-08-30T19:38:35;18.00;97.30
1075;DHT22;526;51.392;12.448;2023-08-30T19:41:00;18.00;97.30
1075;DHT22;526;51.392;12.448;2023-08-30T19:43:26;18.00;97.30
1075;DHT22;526;51.392;12.448;2023-08-30T19:46:02;18.00;97.30
1075;DHT22;526;51.392;12.448;2023-08-30T19:48:28;18.00;97.30
1075;DHT22;526;51.392;12.448;2023-08-30T19:50:54;17.90;97.30
1075;DHT22;526;51.392;12.448;2023-08-30T19:53:20;17.90;97.30
1075;DHT22;526;51.392;12.448;2023-08-30T19:55:45;17.80;97.30
1075;DHT22;526;51.392;12.448;2023-08-30T19:58:19;17.80;97.30
1075;DHT22;526;51.392;12.448;2023-08-30T20:00:49;17.80;97.30
1075;DHT22;526;51.392;12.448;2023-08-30T20:03:14;17.70;97.30